sensor_id;sensor_type;location;lat;lon;timestamp;P1;durP1;ratioP1;P2;durP2;ratioP2
9848;SDS011;4963;51.444;6.528;2023-04-03T00:00:05;6.37;;;4.23;;
9848;SDS011;4963;51.444;6.528;2023-04-03T00:02:33;7.50;;;4.10;;
9848;SDS011;4963;51.444;6.528;2023-04-03T00:05:00;5.40;;;3.93;;
9848;SDS011;4963;51.444;6.528;2023-04-03T00:07:26;6.37;;;4.10;;
9848;SDS011;4963;51.444;6.528;2023-04-03T00:09:53;5.93;;;4.17;;
9848;SDS011;4963;51.444;6.528;2023-04-03T00:12:21;4.60;;;3.60;;
9848;SDS011;4963;51.444;6.528;2023-04-03T00:14:48;5.03;;;4.00;;
9848;SDS011;4963;51.444;6.528;2023-04-03T00:17:15;8.80;;;4.00;;
9848;SDS011;4963;51.444;6.528;2023-04-03T00:19:42;7.40;;;4.23;;
9848;SDS011;4963;51.444;6.528;2023-04-03T00:22:09;5.77;;;3.80;;
9848;SDS011;4963;51.444;6.528;2023-04-03T00:24:35;7.73;;;4.00;;
9848;SDS011;4963;51.444;6.528;2023-04-03T00:27:02;5.87;;;4.10;;
9848;SDS011;4963;51.444;6.528;2023-04-03T00:29:30;4.73;;;3.47;;
9848;SDS011;4963;51.444;6.528;2023-04-03T00:31:57;7.17;;;4.77;;
9848;SDS011;4963;51.444;6.528;2023-04-03T00:34:24;5.67;;;3.93;;
9848;SDS011;4963;51.444;6.528;2023-04-03T00:36:50;6.17;;;4.00;;
9848;SDS011;4963;51.444;6.528;2023-04-03T00:39:17;4.93;;;3.73;;
9848;SDS011;4963;51.444;6.528;2023-04-03T00:41:44;4.47;;;3.50;;
9848;SDS011;4963;51.444;6.528;2023-04-03T00:44:20;5.17;;;4.13;;
9848;SDS011;4963;51.444;6.528;2023-04-03T00:46:50;6.00;;;4.10;;
9848;SDS011;4963;51.444;6.528;2023-04-03T00:49:16;4.50;;;3.80;;
9848;SDS011;4963;51.444;6.528;2023-04-03T00:51:43;7.80;;;4.60;;
9848;SDS011;4963;51.444;6.528;2023-04-03T00:54:10;6.97;;;4.67;;
9848;SDS011;4963;51.444;6.528;2023-04-03T00:56:37;4.90;;;4.00;;
9848;SDS011;4963;51.444;6.528;2023-04-03T00:59:05;5.53;;;4.17;;
9848;SDS011;4963;51.444;6.528;2023-04-03T01:01:34;6.47;;;4.20;;
9848;SDS011;4963;51.444;6.528;2023-04-03T01:04:04;7.60;;;5.07;;
9848;SDS011;4963;51.444;6.528;2023-04-03T01:06:34;5.07;;;4.10;;
9848;SDS011;4963;51.444;6.528;2023-04-03T01:09:03;6.77;;;5.13;;
9848;SDS011;4963;51.444;6.528;2023-04-03T01:11:30;4.80;;;4.23;;
9848;SDS011;4963;51.444;6.528;2023-04-03T01:13:57;7.80;;;5.00;;
9848;SDS011;4963;51.444;6.528;2023-04-03T01:16:25;7.03;;;5.23;;
9848;SDS011;4963;51.444;6.528;2023-04-03T01:18:52;5.57;;;4.97;;
9848;SDS011;4963;51.444;6.528;2023-04-03T01:21:30;7.70;;;4.50;;
9848;SDS011;4963;51.444;6.528;2023-04-03T01:24:32;8.80;;;5.30;;
9848;SDS011;4963;51.444;6.528;2023-04-03T01:27:01;7.37;;;5.20;;
9848;SDS011;4963;51.444;6.528;2023-04-03T01:29:30;5.40;;;4.70;;
9848;SDS011;4963;51.444;6.528;2023-04-03T01:31:59;6.37;;;5.20;;
9848;SDS011;4963;51.444;6.528;2023-04-03T01:34:27;5.97;;;4.87;;
9848;SDS011;4963;51.444;6.528;2023-04-03T01:36:56;6.90;;;4.97;;
9848;SDS011;4963;51.444;6.528;2023-04-03T01:39:23;10.07;;;5.67;;
9848;SDS011;4963;51.444;6.528;2023-04-03T01:41:50;8.87;;;5.40;;
9848;SDS011;4963;51.444;6.528;2023-04-03T01:44:17;6.97;;;5.00;;
9848;SDS011;4963;51.444;6.528;2023-04-03T01:46:43;7.10;;;4.97;;
9848;SDS011;4963;51.444;6.528;2023-04-03T01:49:12;8.00;;;5.03;;
9848;SDS011;4963;51.444;6.528;2023-04-03T01:51:38;7.30;;;5.40;;
9848;SDS011;4963;51.444;6.528;2023-04-03T01:54:05;8.70;;;5.40;;
9848;SDS011;4963;51.444;6.528;2023-04-03T01:56:32;6.47;;;4.73;;
9848;SDS011;4963;51.444;6.528;2023-04-03T01:58:59;7.07;;;4.93;;
9848;SDS011;4963;51.444;6.528;2023-04-03T02:01:25;8.20;;;5.00;;
9848;SDS011;4963;51.444;6.528;2023-04-03T02:03:52;7.93;;;4.57;;
9848;SDS011;4963;51.444;6.528;2023-04-03T02:06:21;7.80;;;4.50;;
9848;SDS011;4963;51.444;6.528;2023-04-03T02:08:47;8.20;;;4.23;;
9848;SDS011;4963;51.444;6.528;2023-04-03T02:11:14;7.60;;;4.43;;
9848;SDS011;4963;51.444;6.528;2023-04-03T02:13:41;8.07;;;4.07;;
9848;SDS011;4963;51.444;6.528;2023-04-03T02:16:08;5.30;;;3.60;;
9848;SDS011;4963;51.444;6.528;2023-04-03T02:18:37;6.13;;;3.90;;
9848;SDS011;4963;51.444;6.528;2023-04-03T02:21:05;5.77;;;3.57;;
9848;SDS011;4963;51.444;6.528;2023-04-03T02:23:33;9.97;;;3.30;;
9848;SDS011;4963;51.444;6.528;2023-04-03T02:26:07;6.30;;;3.77;;
9848;SDS011;4963;51.444;6.528;2023-04-03T02:28:36;5.87;;;3.73;;
9848;SDS011;4963;51.444;6.528;2023-04-03T02:31:03;6.30;;;3.43;;
9848;SDS011;4963;51.444;6.528;2023-04-03T02:33:31;5.13;;;3.10;;
9848;SDS011;4963;51.444;6.528;2023-04-03T02:35:58;10.93;;;3.83;;
9848;SDS011;4963;51.444;6.528;2023-04-03T02:38:25;5.00;;;3.20;;
9848;SDS011;4963;51.444;6.528;2023-04-03T02:40:53;4.37;;;2.90;;
9848;SDS011;4963;51.444;6.528;2023-04-03T02:43:25;7.30;;;3.90;;
9848;SDS011;4963;51.444;6.528;2023-04-03T02:45:52;8.80;;;3.80;;
9848;SDS011;4963;51.444;6.528;2023-04-03T02:48:18;6.10;;;3.23;;
9848;SDS011;4963;51.444;6.528;2023-04-03T02:50:45;5.67;;;3.43;;
9848;SDS011;4963;51.444;6.528;2023-04-03T02:53:12;4.80;;;2.93;;
9848;SDS011;4963;51.444;6.528;2023-04-03T02:55:40;5.47;;;2.73;;
9848;SDS011;4963;51.444;6.528;2023-04-03T02:58:08;7.73;;;3.40;;
9848;SDS011;4963;51.444;6.528;2023-04-03T03:00:35;5.40;;;2.77;;
9848;SDS011;4963;51.444;6.528;2023-04-03T03:03:01;4.00;;;2.80;;
9848;SDS011;4963;51.444;6.528;2023-04-03T03:05:28;11.27;;;3.70;;
9848;SDS011;4963;51.444;6.528;2023-04-03T03:07:55;5.07;;;2.80;;
9848;SDS011;4963;51.444;6.528;2023-04-03T03:10:22;8.23;;;3.83;;
9848;SDS011;4963;51.444;6.528;2023-04-03T03:12:49;6.53;;;2.83;;
9848;SDS011;4963;51.444;6.528;2023-04-03T03:15:17;5.20;;;2.90;;
9848;SDS011;4963;51.444;6.528;2023-04-03T03:17:44;8.57;;;2.87;;
9848;SDS011;4963;51.444;6.528;2023-04-03T03:20:11;7.00;;;2.57;;
9848;SDS011;4963;51.444;6.528;2023-04-03T03:22:40;7.20;;;3.03;;
9848;SDS011;4963;51.444;6.528;2023-04-03T03:25:07;8.50;;;2.83;;
9848;SDS011;4963;51.444;6.528;2023-04-03T03:27:34;7.57;;;3.00;;
9848;SDS011;4963;51.444;6.528;2023-04-03T03:30:01;9.17;;;3.03;;
9848;SDS011;4963;51.444;6.528;2023-04-03T03:32:30;7.50;;;3.07;;
9848;SDS011;4963;51.444;6.528;2023-04-03T03:34:56;7.10;;;2.73;;
9848;SDS011;4963;51.444;6.528;2023-04-03T03:37:23;5.33;;;2.97;;
9848;SDS011;4963;51.444;6.528;2023-04-03T03:39:50;4.40;;;2.60;;
9848;SDS011;4963;51.444;6.528;2023-04-03T03:42:16;7.00;;;3.00;;
9848;SDS011;4963;51.444;6.528;2023-04-03T03:44:43;6.50;;;2.67;;
9848;SDS011;4963;51.444;6.528;2023-04-03T03:47:10;6.70;;;2.80;;
9848;SDS011;4963;51.444;6.528;2023-04-03T03:49:38;6.23;;;2.53;;
9848;SDS011;4963;51.444;6.528;2023-04-03T03:52:05;4.20;;;2.27;;
9848;SDS011;4963;51.444;6.528;2023-04-03T03:54:35;6.60;;;2.73;;
9848;SDS011;4963;51.444;6.528;2023-04-03T03:57:02;4.40;;;2.30;;
9848;SDS011;4963;51.444;6.528;2023-04-03T03:59:29;5.07;;;2.33;;
9848;SDS011;4963;51.444;6.528;2023-04-03T04:01:56;6.77;;;2.57;;
9848;SDS011;4963;51.444;6.528;2023-04-03T04:04:23;6.87;;;3.03;;
9848;SDS011;4963;51.444;6.528;2023-04-03T04:06:51;5.77;;;2.83;;
9848;SDS011;4963;51.444;6.528;2023-04-03T04:09:17;6.37;;;2.87;;
9848;SDS011;4963;51.444;6.528;2023-04-03T04:11:44;7.40;;;2.20;;
9848;SDS011;4963;51.444;6.528;2023-04-03T04:14:11;5.63;;;2.80;;
9848;SDS011;4963;51.444;6.528;2023-04-03T04:16:38;4.43;;;2.27;;
9848;SDS011;4963;51.444;6.528;2023-04-03T04:19:05;7.77;;;2.93;;
9848;SDS011;4963;51.444;6.528;2023-04-03T04:21:32;7.73;;;2.67;;
9848;SDS011;4963;51.444;6.528;2023-04-03T04:24:00;8.53;;;2.77;;
9848;SDS011;4963;51.444;6.528;2023-04-03T04:26:27;5.73;;;2.60;;
9848;SDS011;4963;51.444;6.528;2023-04-03T04:28:54;6.23;;;2.70;;
9848;SDS011;4963;51.444;6.528;2023-04-03T04:31:20;7.93;;;2.63;;
9848;SDS011;4963;51.444;6.528;2023-04-03T04:33:47;6.47;;;2.70;;
9848;SDS011;4963;51.444;6.528;2023-04-03T04:36:14;5.43;;;2.10;;
9848;SDS011;4963;51.444;6.528;2023-04-03T04:38:41;6.17;;;2.27;;
9848;SDS011;4963;51.444;6.528;2023-04-03T04:41:09;6.30;;;2.30;;
9848;SDS011;4963;51.444;6.528;2023-04-03T04:43:36;4.97;;;2.30;;
9848;SDS011;4963;51.444;6.528;2023-04-03T04:46:03;7.37;;;2.40;;
9848;SDS011;4963;51.444;6.528;2023-04-03T04:48:31;6.63;;;2.33;;
9848;SDS011;4963;51.444;6.528;2023-04-03T04:50:58;5.63;;;2.67;;
9848;SDS011;4963;51.444;6.528;2023-04-03T04:53:25;5.53;;;2.17;;
9848;SDS011;4963;51.444;6.528;2023-04-03T04:55:52;5.57;;;2.13;;
9848;SDS011;4963;51.444;6.528;2023-04-03T04:58:20;12.83;;;2.77;;
9848;SDS011;4963;51.444;6.528;2023-04-03T05:00:47;7.17;;;3.00;;
9848;SDS011;4963;51.444;6.528;2023-04-03T05:03:14;3.83;;;2.20;;
9848;SDS011;4963;51.444;6.528;2023-04-03T05:05:41;8.67;;;2.73;;
9848;SDS011;4963;51.444;6.528;2023-04-03T05:08:08;3.97;;;2.00;;
9848;SDS011;4963;51.444;6.528;2023-04-03T05:10:34;11.00;;;2.77;;
9848;SDS011;4963;51.444;6.528;2023-04-03T05:13:01;6.87;;;2.20;;
9848;SDS011;4963;51.444;6.528;2023-04-03T05:15:29;6.50;;;2.60;;
9848;SDS011;4963;51.444;6.528;2023-04-03T05:17:56;4.60;;;2.43;;
9848;SDS011;4963;51.444;6.528;2023-04-03T05:20:23;4.33;;;2.07;;
9848;SDS011;4963;51.444;6.528;2023-04-03T05:22:50;5.10;;;2.40;;
9848;SDS011;4963;51.444;6.528;2023-04-03T05:25:17;4.93;;;2.30;;
9848;SDS011;4963;51.444;6.528;2023-04-03T05:27:43;5.43;;;2.27;;
9848;SDS011;4963;51.444;6.528;2023-04-03T05:30:11;5.10;;;2.40;;
9848;SDS011;4963;51.444;6.528;2023-04-03T05:32:39;3.70;;;2.27;;
9848;SDS011;4963;51.444;6.528;2023-04-03T05:35:07;6.33;;;2.10;;
9848;SDS011;4963;51.444;6.528;2023-04-03T05:37:34;6.43;;;2.53;;
9848;SDS011;4963;51.444;6.528;2023-04-03T05:40:02;3.27;;;2.17;;
9848;SDS011;4963;51.444;6.528;2023-04-03T05:42:29;6.57;;;2.80;;
9848;SDS011;4963;51.444;6.528;2023-04-03T05:44:56;7.83;;;3.13;;
9848;SDS011;4963;51.444;6.528;2023-04-03T05:47:23;5.50;;;2.70;;
9848;SDS011;4963;51.444;6.528;2023-04-03T05:49:51;3.73;;;2.03;;
9848;SDS011;4963;51.444;6.528;2023-04-03T05:52:20;5.23;;;2.80;;
9848;SDS011;4963;51.444;6.528;2023-04-03T05:54:50;5.17;;;2.20;;
9848;SDS011;4963;51.444;6.528;2023-04-03T05:57:17;11.33;;;2.73;;
9848;SDS011;4963;51.444;6.528;2023-04-03T05:59:45;10.93;;;2.70;;
9848;SDS011;4963;51.444;6.528;2023-04-03T06:02:13;5.53;;;2.50;;
9848;SDS011;4963;51.444;6.528;2023-04-03T06:04:42;3.50;;;2.17;;
9848;SDS011;4963;51.444;6.528;2023-04-03T06:07:11;5.23;;;2.57;;
9848;SDS011;4963;51.444;6.528;2023-04-03T06:09:40;4.83;;;2.30;;
9848;SDS011;4963;51.444;6.528;2023-04-03T06:12:07;6.90;;;2.67;;
9848;SDS011;4963;51.444;6.528;2023-04-03T06:14:34;9.53;;;2.67;;
9848;SDS011;4963;51.444;6.528;2023-04-03T06:17:01;8.53;;;2.63;;
9848;SDS011;4963;51.444;6.528;2023-04-03T06:19:28;7.30;;;2.73;;
9848;SDS011;4963;51.444;6.528;2023-04-03T06:21:55;5.33;;;2.30;;
9848;SDS011;4963;51.444;6.528;2023-04-03T06:24:23;10.27;;;2.57;;
9848;SDS011;4963;51.444;6.528;2023-04-03T06:26:50;9.07;;;2.53;;
9848;SDS011;4963;51.444;6.528;2023-04-03T06:29:18;7.33;;;3.20;;
9848;SDS011;4963;51.444;6.528;2023-04-03T06:31:45;7.23;;;3.20;;
9848;SDS011;4963;51.444;6.528;2023-04-03T06:34:12;6.60;;;2.77;;
9848;SDS011;4963;51.444;6.528;2023-04-03T06:36:40;6.20;;;3.10;;
9848;SDS011;4963;51.444;6.528;2023-04-03T06:39:08;13.30;;;3.63;;
9848;SDS011;4963;51.444;6.528;2023-04-03T06:41:36;9.83;;;3.17;;
9848;SDS011;4963;51.444;6.528;2023-04-03T06:44:03;9.70;;;3.77;;
9848;SDS011;4963;51.444;6.528;2023-04-03T06:46:30;8.73;;;2.83;;
9848;SDS011;4963;51.444;6.528;2023-04-03T06:48:57;6.97;;;3.00;;
9848;SDS011;4963;51.444;6.528;2023-04-03T06:51:25;12.67;;;4.23;;
9848;SDS011;4963;51.444;6.528;2023-04-03T06:53:53;8.67;;;3.37;;
9848;SDS011;4963;51.444;6.528;2023-04-03T06:56:23;7.70;;;2.90;;
9848;SDS011;4963;51.444;6.528;2023-04-03T06:58:51;10.43;;;3.23;;
9848;SDS011;4963;51.444;6.528;2023-04-03T07:01:20;9.17;;;3.50;;
9848;SDS011;4963;51.444;6.528;2023-04-03T07:03:47;9.07;;;2.83;;
9848;SDS011;4963;51.444;6.528;2023-04-03T07:06:15;6.47;;;2.77;;
9848;SDS011;4963;51.444;6.528;2023-04-03T07:08:43;6.53;;;3.03;;
9848;SDS011;4963;51.444;6.528;2023-04-03T07:11:11;11.53;;;3.33;;
9848;SDS011;4963;51.444;6.528;2023-04-03T07:13:38;8.83;;;3.30;;
9848;SDS011;4963;51.444;6.528;2023-04-03T07:16:07;6.43;;;2.70;;
9848;SDS011;4963;51.444;6.528;2023-04-03T07:18:35;8.20;;;2.97;;
9848;SDS011;4963;51.444;6.528;2023-04-03T07:21:02;9.10;;;3.70;;
9848;SDS011;4963;51.444;6.528;2023-04-03T07:23:30;9.03;;;3.23;;
9848;SDS011;4963;51.444;6.528;2023-04-03T07:25:57;8.17;;;3.60;;
9848;SDS011;4963;51.444;6.528;2023-04-03T07:28:24;7.53;;;3.00;;
9848;SDS011;4963;51.444;6.528;2023-04-03T07:30:51;7.97;;;3.00;;
9848;SDS011;4963;51.444;6.528;2023-04-03T07:33:22;10.17;;;3.83;;
9848;SDS011;4963;51.444;6.528;2023-04-03T07:35:49;7.47;;;3.60;;
9848;SDS011;4963;51.444;6.528;2023-04-03T07:38:16;9.70;;;3.70;;
9848;SDS011;4963;51.444;6.528;2023-04-03T07:40:45;10.17;;;4.10;;
9848;SDS011;4963;51.444;6.528;2023-04-03T07:43:12;12.80;;;3.37;;
9848;SDS011;4963;51.444;6.528;2023-04-03T07:45:39;9.13;;;3.17;;
9848;SDS011;4963;51.444;6.528;2023-04-03T07:48:06;8.00;;;3.20;;
9848;SDS011;4963;51.444;6.528;2023-04-03T07:50:35;8.67;;;2.80;;
9848;SDS011;4963;51.444;6.528;2023-04-03T07:53:02;9.07;;;3.63;;
9848;SDS011;4963;51.444;6.528;2023-04-03T07:55:29;8.40;;;3.47;;
9848;SDS011;4963;51.444;6.528;2023-04-03T07:57:58;5.93;;;2.60;;
9848;SDS011;4963;51.444;6.528;2023-04-03T08:00:25;8.63;;;3.00;;
9848;SDS011;4963;51.444;6.528;2023-04-03T08:02:52;8.23;;;2.80;;
9848;SDS011;4963;51.444;6.528;2023-04-03T08:05:18;11.43;;;3.53;;
9848;SDS011;4963;51.444;6.528;2023-04-03T08:07:47;5.40;;;2.43;;
9848;SDS011;4963;51.444;6.528;2023-04-03T08:10:14;8.10;;;3.30;;
9848;SDS011;4963;51.444;6.528;2023-04-03T08:12:41;7.40;;;3.33;;
9848;SDS011;4963;51.444;6.528;2023-04-03T08:15:08;7.67;;;3.37;;
9848;SDS011;4963;51.444;6.528;2023-04-03T08:17:35;8.40;;;3.07;;
9848;SDS011;4963;51.444;6.528;2023-04-03T08:20:03;7.03;;;3.30;;
9848;SDS011;4963;51.444;6.528;2023-04-03T08:22:31;7.23;;;3.40;;
9848;SDS011;4963;51.444;6.528;2023-04-03T08:25:00;11.10;;;3.30;;
9848;SDS011;4963;51.444;6.528;2023-04-03T08:27:27;9.33;;;3.40;;
9848;SDS011;4963;51.444;6.528;2023-04-03T08:29:54;12.87;;;3.83;;
9848;SDS011;4963;51.444;6.528;2023-04-03T08:32:21;5.57;;;2.60;;
9848;SDS011;4963;51.444;6.528;2023-04-03T08:34:49;5.03;;;2.83;;
9848;SDS011;4963;51.444;6.528;2023-04-03T08:37:16;10.87;;;3.10;;
9848;SDS011;4963;51.444;6.528;2023-04-03T08:39:44;6.90;;;2.77;;
9848;SDS011;4963;51.444;6.528;2023-04-03T08:42:15;8.20;;;2.70;;
9848;SDS011;4963;51.444;6.528;2023-04-03T08:44:59;5.13;;;2.77;;
9848;SDS011;4963;51.444;6.528;2023-04-03T08:47:37;9.33;;;2.87;;
9848;SDS011;4963;51.444;6.528;2023-04-03T08:50:07;7.13;;;2.27;;
9848;SDS011;4963;51.444;6.528;2023-04-03T08:52:38;4.20;;;2.77;;
9848;SDS011;4963;51.444;6.528;2023-04-03T08:55:13;5.57;;;2.60;;
9848;SDS011;4963;51.444;6.528;2023-04-03T08:57:48;6.20;;;2.43;;
9848;SDS011;4963;51.444;6.528;2023-04-03T09:00:18;5.33;;;2.40;;
9848;SDS011;4963;51.444;6.528;2023-04-03T09:02:46;4.53;;;1.80;;
9848;SDS011;4963;51.444;6.528;2023-04-03T09:05:16;5.43;;;2.50;;
9848;SDS011;4963;51.444;6.528;2023-04-03T09:07:45;5.27;;;1.90;;
9848;SDS011;4963;51.444;6.528;2023-04-03T09:10:18;7.53;;;2.00;;
9848;SDS011;4963;51.444;6.528;2023-04-03T09:12:55;4.23;;;1.70;;
9848;SDS011;4963;51.444;6.528;2023-04-03T09:15:27;5.27;;;1.87;;
9848;SDS011;4963;51.444;6.528;2023-04-03T09:17:59;3.50;;;2.00;;
9848;SDS011;4963;51.444;6.528;2023-04-03T09:20:33;2.63;;;1.60;;
9848;SDS011;4963;51.444;6.528;2023-04-03T09:23:12;8.20;;;1.80;;
9848;SDS011;4963;51.444;6.528;2023-04-03T09:25:44;2.73;;;1.63;;
9848;SDS011;4963;51.444;6.528;2023-04-03T09:28:13;3.20;;;1.77;;
9848;SDS011;4963;51.444;6.528;2023-04-03T09:30:40;4.20;;;1.73;;
9848;SDS011;4963;51.444;6.528;2023-04-03T09:33:07;2.67;;;1.53;;
9848;SDS011;4963;51.444;6.528;2023-04-03T09:35:35;7.60;;;2.27;;
9848;SDS011;4963;51.444;6.528;2023-04-03T09:38:14;3.07;;;1.50;;
9848;SDS011;4963;51.444;6.528;2023-04-03T09:40:43;5.07;;;1.60;;
9848;SDS011;4963;51.444;6.528;2023-04-03T09:43:22;2.20;;;1.27;;
9848;SDS011;4963;51.444;6.528;2023-04-03T09:45:51;8.63;;;1.47;;
9848;SDS011;4963;51.444;6.528;2023-04-03T09:48:19;2.70;;;1.40;;
9848;SDS011;4963;51.444;6.528;2023-04-03T09:50:58;3.03;;;1.67;;
9848;SDS011;4963;51.444;6.528;2023-04-03T09:53:30;1.83;;;1.30;;
9848;SDS011;4963;51.444;6.528;2023-04-03T09:56:03;4.60;;;1.60;;
9848;SDS011;4963;51.444;6.528;2023-04-03T09:58:46;2.80;;;1.53;;
9848;SDS011;4963;51.444;6.528;2023-04-03T10:01:26;7.17;;;1.50;;
9848;SDS011;4963;51.444;6.528;2023-04-03T10:06:41;3.07;;;1.40;;
9848;SDS011;4963;51.444;6.528;2023-04-03T10:09:19;2.87;;;1.27;;
9848;SDS011;4963;51.444;6.528;2023-04-03T10:11:57;3.70;;;1.53;;
9848;SDS011;4963;51.444;6.528;2023-04-03T10:14:28;3.13;;;1.73;;
9848;SDS011;4963;51.444;6.528;2023-04-03T10:16:56;2.83;;;1.63;;
9848;SDS011;4963;51.444;6.528;2023-04-03T10:19:33;2.10;;;1.40;;
9848;SDS011;4963;51.444;6.528;2023-04-03T10:22:04;4.20;;;1.20;;
9848;SDS011;4963;51.444;6.528;2023-04-03T10:24:40;2.23;;;1.10;;
9848;SDS011;4963;51.444;6.528;2023-04-03T10:27:16;2.13;;;1.27;;
9848;SDS011;4963;51.444;6.528;2023-04-03T10:29:49;3.60;;;1.30;;
9848;SDS011;4963;51.444;6.528;2023-04-03T10:32:24;1.77;;;1.13;;
9848;SDS011;4963;51.444;6.528;2023-04-03T10:35:02;5.20;;;1.33;;
9848;SDS011;4963;51.444;6.528;2023-04-03T10:37:40;3.20;;;1.33;;
9848;SDS011;4963;51.444;6.528;2023-04-03T10:40:19;3.23;;;1.50;;
9848;SDS011;4963;51.444;6.528;2023-04-03T10:42:57;5.83;;;1.40;;
9848;SDS011;4963;51.444;6.528;2023-04-03T10:45:46;4.87;;;1.67;;
9848;SDS011;4963;51.444;6.528;2023-04-03T10:48:18;1.83;;;1.17;;
9848;SDS011;4963;51.444;6.528;2023-04-03T10:50:56;2.97;;;1.30;;
9848;SDS011;4963;51.444;6.528;2023-04-03T10:53:29;4.03;;;1.47;;
9848;SDS011;4963;51.444;6.528;2023-04-03T10:56:02;4.93;;;1.20;;
9848;SDS011;4963;51.444;6.528;2023-04-03T10:58:34;3.23;;;1.53;;
9848;SDS011;4963;51.444;6.528;2023-04-03T11:01:07;1.67;;;1.20;;
9848;SDS011;4963;51.444;6.528;2023-04-03T11:03:36;3.27;;;1.20;;
9848;SDS011;4963;51.444;6.528;2023-04-03T11:06:07;1.70;;;1.13;;
9848;SDS011;4963;51.444;6.528;2023-04-03T11:08:37;4.07;;;1.33;;
9848;SDS011;4963;51.444;6.528;2023-04-03T11:11:09;2.83;;;1.40;;
9848;SDS011;4963;51.444;6.528;2023-04-03T11:13:40;5.17;;;1.87;;
9848;SDS011;4963;51.444;6.528;2023-04-03T11:16:13;3.53;;;1.30;;
9848;SDS011;4963;51.444;6.528;2023-04-03T11:18:46;3.93;;;1.60;;
9848;SDS011;4963;51.444;6.528;2023-04-03T11:21:19;4.30;;;1.30;;
9848;SDS011;4963;51.444;6.528;2023-04-03T11:23:49;4.00;;;1.10;;
9848;SDS011;4963;51.444;6.528;2023-04-03T11:26:19;4.27;;;1.13;;
9848;SDS011;4963;51.444;6.528;2023-04-03T11:28:52;3.73;;;1.43;;
9848;SDS011;4963;51.444;6.528;2023-04-03T11:31:26;3.27;;;1.20;;
9848;SDS011;4963;51.444;6.528;2023-04-03T11:34:05;3.67;;;1.57;;
9848;SDS011;4963;51.444;6.528;2023-04-03T11:36:42;5.23;;;1.50;;
9848;SDS011;4963;51.444;6.528;2023-04-03T11:39:16;2.00;;;1.37;;
9848;SDS011;4963;51.444;6.528;2023-04-03T11:41:46;2.33;;;1.40;;
9848;SDS011;4963;51.444;6.528;2023-04-03T11:44:28;3.43;;;1.50;;
9848;SDS011;4963;51.444;6.528;2023-04-03T11:47:01;3.43;;;1.80;;
9848;SDS011;4963;51.444;6.528;2023-04-03T11:58:19;4.47;;;1.60;;
9848;SDS011;4963;51.444;6.528;2023-04-03T12:00:50;3.30;;;1.30;;
9848;SDS011;4963;51.444;6.528;2023-04-03T12:09:26;6.87;;;1.87;;
9848;SDS011;4963;51.444;6.528;2023-04-03T12:12:24;3.43;;;1.60;;
9848;SDS011;4963;51.444;6.528;2023-04-03T12:17:51;5.80;;;2.13;;
9848;SDS011;4963;51.444;6.528;2023-04-03T12:23:30;3.90;;;1.73;;
9848;SDS011;4963;51.444;6.528;2023-04-03T12:26:00;4.23;;;1.83;;
9848;SDS011;4963;51.444;6.528;2023-04-03T12:28:35;3.13;;;1.93;;
9848;SDS011;4963;51.444;6.528;2023-04-03T12:31:04;3.97;;;1.50;;
9848;SDS011;4963;51.444;6.528;2023-04-03T12:33:37;3.43;;;1.53;;
9848;SDS011;4963;51.444;6.528;2023-04-03T12:36:26;3.17;;;1.70;;
9848;SDS011;4963;51.444;6.528;2023-04-03T12:39:09;5.20;;;1.73;;
9848;SDS011;4963;51.444;6.528;2023-04-03T12:41:49;2.33;;;1.50;;
9848;SDS011;4963;51.444;6.528;2023-04-03T12:44:27;3.83;;;1.77;;
9848;SDS011;4963;51.444;6.528;2023-04-03T12:47:19;5.37;;;1.90;;
9848;SDS011;4963;51.444;6.528;2023-04-03T12:49:50;2.73;;;1.50;;
9848;SDS011;4963;51.444;6.528;2023-04-03T12:52:19;3.30;;;1.57;;
9848;SDS011;4963;51.444;6.528;2023-04-03T12:54:56;6.93;;;1.60;;
9848;SDS011;4963;51.444;6.528;2023-04-03T12:57:24;4.70;;;1.80;;
9848;SDS011;4963;51.444;6.528;2023-04-03T12:59:52;5.53;;;1.83;;
9848;SDS011;4963;51.444;6.528;2023-04-03T13:02:21;2.70;;;1.60;;
9848;SDS011;4963;51.444;6.528;2023-04-03T13:04:49;3.23;;;1.70;;
9848;SDS011;4963;51.444;6.528;2023-04-03T13:07:21;1.90;;;1.33;;
9848;SDS011;4963;51.444;6.528;2023-04-03T13:09:59;4.30;;;1.77;;
9848;SDS011;4963;51.444;6.528;2023-04-03T13:12:28;3.87;;;1.63;;
9848;SDS011;4963;51.444;6.528;2023-04-03T13:14:55;3.70;;;1.57;;
9848;SDS011;4963;51.444;6.528;2023-04-03T13:17:24;5.60;;;1.80;;
9848;SDS011;4963;51.444;6.528;2023-04-03T13:19:52;4.03;;;1.60;;
9848;SDS011;4963;51.444;6.528;2023-04-03T13:22:24;5.60;;;1.83;;
9848;SDS011;4963;51.444;6.528;2023-04-03T13:24:54;3.07;;;1.60;;
9848;SDS011;4963;51.444;6.528;2023-04-03T13:27:25;3.40;;;2.10;;
9848;SDS011;4963;51.444;6.528;2023-04-03T13:29:53;7.63;;;1.90;;
9848;SDS011;4963;51.444;6.528;2023-04-03T13:32:24;3.47;;;1.90;;
9848;SDS011;4963;51.444;6.528;2023-04-03T13:34:53;3.27;;;2.00;;
9848;SDS011;4963;51.444;6.528;2023-04-03T13:37:22;4.07;;;1.30;;
9848;SDS011;4963;51.444;6.528;2023-04-03T13:39:57;2.50;;;1.50;;
9848;SDS011;4963;51.444;6.528;2023-04-03T13:42:28;3.60;;;1.43;;
9848;SDS011;4963;51.444;6.528;2023-04-03T13:45:08;3.67;;;1.47;;
9848;SDS011;4963;51.444;6.528;2023-04-03T13:47:38;3.63;;;1.47;;
9848;SDS011;4963;51.444;6.528;2023-04-03T13:50:13;3.37;;;1.83;;
9848;SDS011;4963;51.444;6.528;2023-04-03T13:52:43;4.47;;;1.53;;
9848;SDS011;4963;51.444;6.528;2023-04-03T13:55:16;4.77;;;1.77;;
9848;SDS011;4963;51.444;6.528;2023-04-03T13:57:52;2.23;;;1.50;;
9848;SDS011;4963;51.444;6.528;2023-04-03T14:00:28;7.03;;;1.90;;
9848;SDS011;4963;51.444;6.528;2023-04-03T14:02:59;3.20;;;2.03;;
9848;SDS011;4963;51.444;6.528;2023-04-03T14:05:26;2.67;;;1.47;;
9848;SDS011;4963;51.444;6.528;2023-04-03T14:07:53;5.03;;;1.70;;
9848;SDS011;4963;51.444;6.528;2023-04-03T14:10:21;4.87;;;1.77;;
9848;SDS011;4963;51.444;6.528;2023-04-03T14:12:48;3.73;;;1.57;;
9848;SDS011;4963;51.444;6.528;2023-04-03T14:15:18;3.77;;;1.67;;
9848;SDS011;4963;51.444;6.528;2023-04-03T14:17:49;2.77;;;1.73;;
9848;SDS011;4963;51.444;6.528;2023-04-03T14:20:18;3.00;;;1.47;;
9848;SDS011;4963;51.444;6.528;2023-04-03T14:22:46;2.87;;;1.80;;
9848;SDS011;4963;51.444;6.528;2023-04-03T14:25:14;4.37;;;1.80;;
9848;SDS011;4963;51.444;6.528;2023-04-03T14:27:42;3.33;;;1.60;;
9848;SDS011;4963;51.444;6.528;2023-04-03T14:30:12;4.63;;;1.70;;
9848;SDS011;4963;51.444;6.528;2023-04-03T14:32:43;5.20;;;1.37;;
9848;SDS011;4963;51.444;6.528;2023-04-03T14:35:11;4.23;;;1.63;;
9848;SDS011;4963;51.444;6.528;2023-04-03T14:37:39;2.33;;;1.20;;
9848;SDS011;4963;51.444;6.528;2023-04-03T14:40:07;5.30;;;1.70;;
9848;SDS011;4963;51.444;6.528;2023-04-03T14:42:36;3.67;;;1.70;;
9848;SDS011;4963;51.444;6.528;2023-04-03T14:45:04;4.53;;;1.70;;
9848;SDS011;4963;51.444;6.528;2023-04-03T14:47:32;3.03;;;1.60;;
9848;SDS011;4963;51.444;6.528;2023-04-03T14:50:06;2.33;;;1.57;;
9848;SDS011;4963;51.444;6.528;2023-04-03T14:52:35;4.60;;;1.70;;
9848;SDS011;4963;51.444;6.528;2023-04-03T14:55:03;4.97;;;1.73;;
9848;SDS011;4963;51.444;6.528;2023-04-03T14:57:31;3.13;;;1.70;;
9848;SDS011;4963;51.444;6.528;2023-04-03T14:59:58;4.53;;;2.00;;
9848;SDS011;4963;51.444;6.528;2023-04-03T15:02:27;4.90;;;3.00;;
9848;SDS011;4963;51.444;6.528;2023-04-03T15:04:55;3.37;;;1.50;;
9848;SDS011;4963;51.444;6.528;2023-04-03T15:07:25;3.00;;;1.50;;
9848;SDS011;4963;51.444;6.528;2023-04-03T15:09:53;3.80;;;1.47;;
9848;SDS011;4963;51.444;6.528;2023-04-03T15:12:21;3.50;;;1.53;;
9848;SDS011;4963;51.444;6.528;2023-04-03T15:14:48;5.80;;;2.00;;
9848;SDS011;4963;51.444;6.528;2023-04-03T15:17:16;3.43;;;1.53;;
9848;SDS011;4963;51.444;6.528;2023-04-03T15:19:45;4.43;;;2.10;;
9848;SDS011;4963;51.444;6.528;2023-04-03T15:22:12;3.40;;;1.63;;
9848;SDS011;4963;51.444;6.528;2023-04-03T15:24:42;12.33;;;2.07;;
9848;SDS011;4963;51.444;6.528;2023-04-03T15:27:09;4.40;;;2.10;;
9848;SDS011;4963;51.444;6.528;2023-04-03T15:29:37;3.20;;;1.60;;
9848;SDS011;4963;51.444;6.528;2023-04-03T15:32:04;3.77;;;1.40;;
9848;SDS011;4963;51.444;6.528;2023-04-03T15:34:31;4.70;;;1.83;;
9848;SDS011;4963;51.444;6.528;2023-04-03T15:36:58;4.80;;;1.87;;
9848;SDS011;4963;51.444;6.528;2023-04-03T15:39:25;3.60;;;1.70;;
9848;SDS011;4963;51.444;6.528;2023-04-03T15:41:53;4.40;;;1.57;;
9848;SDS011;4963;51.444;6.528;2023-04-03T15:44:21;4.67;;;1.80;;
9848;SDS011;4963;51.444;6.528;2023-04-03T15:46:48;4.60;;;1.97;;
9848;SDS011;4963;51.444;6.528;2023-04-03T15:49:16;4.53;;;1.60;;
9848;SDS011;4963;51.444;6.528;2023-04-03T15:51:43;3.33;;;1.90;;